Pisces — WDE7319 — position and weather

sailwx.info

Track history (hours):
 
Tides and Currents Weather Stations Pressure Air Temp Water Temp Dewpoint Dewpoint Depression Visibility Wind Speed Wind Dir Waves Ship Positions

Pisces

Owner: San Francisco Bay Area Water Emergency Transportation Authority, San Francisco, CA. More information available from US FCC via Universal Licensing System and Coast Guard Vessel Documentation Center.

Last reported at 2018-Feb-16 16:03 UTC. Time now 2018-Feb-20 17:05 UTC.
Position N 37°48' W 122°24'.

Length 35 m.

MMSI: 367391830.

Date/timePositionNaut miles runAvg speedWind from/ knotsBaromVisibWave heightAir tempDewpointWater temp
2018-Feb-16 16:03N 37°48' W 122°24'0 0.0
2018-Feb-16 16:00N 37°48' W 122°24'0 1.0
2018-Feb-16 15:31N 37°48' W 122°23'714.4
2018-Feb-16 15:00N 37°44' W 122°15'4 8.5
2018-Feb-16 14:31N 37°46' W 122°20'4 7.0
2018-Feb-16 14:00N 37°48' W 122°24'0 0.0
2018-Feb-16 13:30N 37°48' W 122°24'  
2018-Feb-13 16:25N 37°48' W 122°24'2 4.3
2018-Feb-13 16:00N 37°47' W 122°22'2 4.8
2018-Feb-13 15:31N 37°46' W 122°20'4 0.2
2018-Feb-12 19:17N 37°48' W 122°24'0 0.0
2018-Feb-12 19:01N 37°48' W 122°24'0 0.0
2018-Feb-12 18:30N 37°48' W 122°24'0 0.0
2018-Feb-12 18:00N 37°48' W 122°24'0 0.6
2018-Feb-12 17:30N 37°48' W 122°24'4 8.9
2018-Feb-12 17:00N 37°45' W 122°19'3 6.1
2018-Feb-12 16:30N 37°44' W 122°15'714.6
2018-Feb-12 16:00N 37°48' W 122°24'0 0.4
2018-Feb-12 15:31N 37°48' W 122°23'714.3
2018-Feb-12 15:00N 37°44' W 122°15'2 4.9
2018-Feb-12 14:31N 37°45' W 122°18'510.5
2018-Feb-12 14:00N 37°48' W 122°24'  
2018-Feb-09 05:00N 37°48' W 122°17'4 8.4
2018-Feb-09 04:30N 37°48' W 122°22'2 1.2
2018-Feb-09 03:00N 37°49' W 122°24'510.4
2018-Feb-09 02:30N 37°47' W 122°18'5 9.3
2018-Feb-09 02:00N 37°48' W 122°24'4 8.7
2018-Feb-09 01:30N 37°47' W 122°18'1 1.8
2018-Feb-09 01:00N 37°48' W 122°17'6 6.3
2018-Feb-09 00:00N 37°49' W 122°25'1 0.9
2018-Feb-08 23:00N 37°48' W 122°24'0 0.0
2018-Feb-08 20:30N 37°48' W 122°24'0 0.0
2018-Feb-08 20:00N 37°48' W 122°24'0 0.0
2018-Feb-08 18:30N 37°48' W 122°24'0 0.0
2018-Feb-08 18:00N 37°48' W 122°24'0 0.0
2018-Feb-08 17:30N 37°48' W 122°24'0 0.0
2018-Feb-08 17:00N 37°48' W 122°24'0 0.0
2018-Feb-08 16:30N 37°48' W 122°24'0 0.0
2018-Feb-08 16:00N 37°48' W 122°24'6 4.1
2018-Feb-08 14:30N 37°45' W 122°17'612.4
2018-Feb-08 14:00N 37°48' W 122°24'0 0.0
2018-Feb-08 13:30N 37°48' W 122°24'0 0.0
2018-Feb-08 05:30N 37°48' W 122°24'5 1.6
2018-Feb-08 02:30N 37°47' W 122°18'5 9.3
2018-Feb-08 02:01N 37°48' W 122°24'510.6
2018-Feb-08 01:30N 37°48' W 122°17'0 0.2
2018-Feb-08 01:00N 37°48' W 122°17'2 4.3
2018-Feb-08 00:31N 37°48' W 122°20'4 8.2
2018-Feb-08 00:00N 37°49' W 122°25'0 0.0
2018-Feb-07 23:30N 37°49' W 122°25'0 0.0
2018-Feb-07 23:00N 37°49' W 122°25'0 0.0
2018-Feb-07 22:30N 37°49' W 122°25'0 0.0
2018-Feb-07 22:00N 37°49' W 122°25'0 0.0
2018-Feb-07 21:31N 37°49' W 122°25'6 0.3
2018-Feb-07 02:12N 37°48' W 122°17'1 3.2
2018-Feb-07 01:58N 37°47' W 122°18'715.8
2018-Feb-07 01:30N 37°41' W 122°21'1 2.8
2018-Feb-07 01:00N 37°40' W 122°23'815.9
2018-Feb-07 00:30N 37°48' W 122°23'1 0.1
2018-Feb-06 18:49N 37°48' W 122°24'0 0.6
2018-Feb-06 18:28N 37°48' W 122°24'1 1.1
2018-Feb-06 17:29N 37°49' W 122°25'0 0.0
2018-Feb-06 16:57N 37°49' W 122°25'919.0
2018-Feb-06 16:29N 37°40' W 122°23'  
Track history (hours):
 
Tides and Currents Weather Stations Pressure Air Temp Water Temp Dewpoint Dewpoint Depression Visibility Wind Speed Wind Dir Waves Ship Positions

Pisces

Owner: San Francisco Bay Area Water Emergency Transportation Authority, San Francisco, CA. More information available from US FCC via Universal Licensing System and Coast Guard Vessel Documentation Center.

Last reported at 2018-Feb-16 16:03 UTC. Time now 2018-Feb-20 17:05 UTC.
Position N 37°48' W 122°24'.

Length 35 m.

MMSI: 367391830.

Date/timePositionNaut miles runAvg speedWind from/ knotsBaromVisibWave heightAir tempDewpointWater temp
2018-Feb-16 16:03N 37°48' W 122°24'0 0.0
2018-Feb-16 16:00N 37°48' W 122°24'0 1.0
2018-Feb-16 15:31N 37°48' W 122°23'714.4
2018-Feb-16 15:00N 37°44' W 122°15'4 8.5
2018-Feb-16 14:31N 37°46' W 122°20'4 7.0
2018-Feb-16 14:00N 37°48' W 122°24'0 0.0
2018-Feb-16 13:30N 37°48' W 122°24'  
2018-Feb-13 16:25N 37°48' W 122°24'2 4.3
2018-Feb-13 16:00N 37°47' W 122°22'2 4.8
2018-Feb-13 15:31N 37°46' W 122°20'4 0.2
2018-Feb-12 19:17N 37°48' W 122°24'0 0.0
2018-Feb-12 19:01N 37°48' W 122°24'0 0.0
2018-Feb-12 18:30N 37°48' W 122°24'0 0.0
2018-Feb-12 18:00N 37°48' W 122°24'0 0.6
2018-Feb-12 17:30N 37°48' W 122°24'4 8.9
2018-Feb-12 17:00N 37°45' W 122°19'3 6.1
2018-Feb-12 16:30N 37°44' W 122°15'714.6
2018-Feb-12 16:00N 37°48' W 122°24'0 0.4
2018-Feb-12 15:31N 37°48' W 122°23'714.3
2018-Feb-12 15:00N 37°44' W 122°15'2 4.9
2018-Feb-12 14:31N 37°45' W 122°18'510.5
2018-Feb-12 14:00N 37°48' W 122°24'  
2018-Feb-09 05:00N 37°48' W 122°17'4 8.4
2018-Feb-09 04:30N 37°48' W 122°22'2 1.2
2018-Feb-09 03:00N 37°49' W 122°24'510.4
2018-Feb-09 02:30N 37°47' W 122°18'5 9.3
2018-Feb-09 02:00N 37°48' W 122°24'4 8.7
2018-Feb-09 01:30N 37°47' W 122°18'1 1.8
2018-Feb-09 01:00N 37°48' W 122°17'6 6.3
2018-Feb-09 00:00N 37°49' W 122°25'1 0.9
2018-Feb-08 23:00N 37°48' W 122°24'0 0.0
2018-Feb-08 20:30N 37°48' W 122°24'0 0.0
2018-Feb-08 20:00N 37°48' W 122°24'0 0.0
2018-Feb-08 18:30N 37°48' W 122°24'0 0.0
2018-Feb-08 18:00N 37°48' W 122°24'0 0.0
2018-Feb-08 17:30N 37°48' W 122°24'0 0.0
2018-Feb-08 17:00N 37°48' W 122°24'0 0.0
2018-Feb-08 16:30N 37°48' W 122°24'0 0.0
2018-Feb-08 16:00N 37°48' W 122°24'6 4.1
2018-Feb-08 14:30N 37°45' W 122°17'612.4
2018-Feb-08 14:00N 37°48' W 122°24'0 0.0
2018-Feb-08 13:30N 37°48' W 122°24'0 0.0
2018-Feb-08 05:30N 37°48' W 122°24'5 1.6
2018-Feb-08 02:30N 37°47' W 122°18'5 9.3
2018-Feb-08 02:01N 37°48' W 122°24'510.6
2018-Feb-08 01:30N 37°48' W 122°17'0 0.2
2018-Feb-08 01:00N 37°48' W 122°17'2 4.3
2018-Feb-08 00:31N 37°48' W 122°20'4 8.2
2018-Feb-08 00:00N 37°49' W 122°25'0 0.0
2018-Feb-07 23:30N 37°49' W 122°25'0 0.0
2018-Feb-07 23:00N 37°49' W 122°25'0 0.0
2018-Feb-07 22:30N 37°49' W 122°25'0 0.0
2018-Feb-07 22:00N 37°49' W 122°25'0 0.0
2018-Feb-07 21:31N 37°49' W 122°25'6 0.3
2018-Feb-07 02:12N 37°48' W 122°17'1 3.2
2018-Feb-07 01:58N 37°47' W 122°18'715.8
2018-Feb-07 01:30N 37°41' W 122°21'1 2.8
2018-Feb-07 01:00N 37°40' W 122°23'815.9
2018-Feb-07 00:30N 37°48' W 122°23'1 0.1
2018-Feb-06 18:49N 37°48' W 122°24'0 0.6
2018-Feb-06 18:28N 37°48' W 122°24'1 1.1
2018-Feb-06 17:29N 37°49' W 122°25'0 0.0
2018-Feb-06 16:57N 37°49' W 122°25'919.0
2018-Feb-06 16:29N 37°40' W 122°23'  

Dump ship's entire track history